Flight Number: EUR1034 Duration: 2:30
Departure: Gibraltar Airport (LXGB) at 18:15 Distance: 927 Nm
Arrival: Gatwick Airport (EGKK) at 20:45 Equipment: B737

Weather Information
Gibraltar, Gibraltar (LXGB) 36-09N 005-21W 0M Jan 23, 2018 - 03:50 AM EST / 2018.01.23 0850 UTC
Wind: from the WSW (240 degrees) at 7 MPH (6 KT):0
Visibility: greater than 7 mile(s):0
Sky conditions: mostly clear Temperature: 55 F (13 C) Dew Point: 53 F (12 C) Relative Humidity: 93% Pressure (altimeter): 30.33 in. Hg (1027 hPa)
ob: LXGB 230850Z 24006KT 9999 FEW022 13/12 Q1027 NOSIG cycle: 9
Sunrise: 07:31 Sunset: 17:35 (UTC)

London / Gatwick Airport, United Kingdom (EGKK) 51-09N 000-11W 0M Jan 23, 2018 - 04:20 AM EST / 2018.01.23 0920 UTC
Wind: from the SSW (200 degrees) at 10 MPH (9 KT):0
Visibility: 2 mile(s):0
Sky conditions: overcast Weather: drizzle; mist Temperature: 48 F (9 C) Dew Point: 48 F (9 C) Relative Humidity: 100% Pressure (altimeter): 30.00 in. Hg (1016 hPa)
ob: EGKK 230920Z 20009KT 3500 DZ BR OVC004 09/09 Q1016 cycle: 9
Sunrise: 07:53 Sunset: 16:31 (UTC)

TAF:2018/01/23 06:47 TAF EGKK 230500Z 2306/2412 21010KT 9999 SCT030 BECMG 2306/2308 BKN012 TEMPO 2307/2403 7000 -RA BKN008 PROB40 TEMPO 2307/2314 3000 RADZ BKN004 PROB30 TEMPO 2312/2324 24015G25KT PROB30 TEMPO 2314/2317 BKN018 PROB30 TEMPO 2317/2324 3000 RADZ BKN004 BECMG 2400/2403 20015G25KT TEMPO 2403/2412 20025G38KT 4000 RADZ BKN006

Previous Pireps for this route
Date Aircraft Flight time Fuel used Landing rate On time
2012-07-22A3212.34352320Yes
2012-10-22A32102.320-976No
2012-10-30B73702.3515895-108No
2012-12-08B73703.0326366-334No
2012-12-11B7373.30177380No
2012-12-19B73702.4013457-575Yes
2013-02-23A32102.4723871-578Yes
2013-03-06A3212.2615429-317No
2013-03-08A32102.3019660-345Yes
2013-08-24A32102.5818907-216No
2013-09-19A3212100670No
2013-11-05A32103.0318549-516No
2015-01-04B7372,30150000Yes
2015-05-28A3212.4213020No
2015-12-07A32102.2423115-155No
2016-01-02A32102.3514533-41Yes
2016-07-26A3212.0320203.80No
2016-10-19B73702.3722283-201No
2017-01-21B73702.2319792-121Yes
(pireps marked green are flown by you)

Route map